Wind Cave National Park, SD

7:10 PM MDT en Septiembre 04, 2015 (GMT -0600)
Hay Creek Road | | Change Station
CLOSE
Current Station
Estación meteorológica personal
Location: Custer, SD
Altura: 5325 ft
Estaciones meteorológicas cercanas

Alt 5325 ft 43.70 °N, 103.67 °W | Updated 18 seconds ago

Clear
Despejado
77.0 ° F
Sensación térmica 78 ° F
N
0.9
Viento Variable Viento desde SSE
Gusts 2.5 mph

Hoy
Alta -- | Baja -- ° F
--% Posibilidad de precipitaciones
Ayer
Alta -- | Baja -- ° F
Precip. -- pul
6:21 AM 7:25 PM
Gibosa menguante, 54% visible
Presión 29.77 pul
Visibilidad 10.0 Millas
Nubes Despejado
Índice de calor 78 ° F
Punto de rocío 43 ° F
Humedad 30%
Precipitaciones 0.00 pul
Espesor de la nieve No disponible.
UV 0.0 de una escala de 12
Polen 9.70 de una escala de 12
Calidad del aire No disponible.
Flu Activity No disponible.
METAR KCUT 050053Z AUTO 18005KT 10SM CLR 25/05 A2997 RMK AO2 SLP079 T02500050
Presión 29.77 pul
Visibilidad 10.0 Millas
Nubes Despejado
Índice de calor 78 ° F
Punto de rocío 43 ° F
Humedad 30%
Precipitaciones 0.00 pul
Espesor de la nieve No disponible.
UV 0.0 de una escala de 12
Polen 9.70 de una escala de 12
Calidad del aire No disponible.
Flu Activity No disponible.
METAR KCUT 050053Z AUTO 18005KT 10SM CLR 25/05 A2997 RMK AO2 SLP079 T02500050

10-Day Weather Forecast

×

Almanac

Astronomía

Sep. 04, 2015 Salida Puesta
Hora real
Crepúsculo civil
Crepúsculo náutico
Crepúsculo astronómico
Luna
Horas de luz
Horas de luz
Tomorrow will be .
, % of the Moon is Illuminated

Extremos de hoy

Máximos del estado Bajos del estado

Community

WunderPhotos

Upload Photos

1,852,372 ¡fotos cargadas!

WunderBlogs® & News

Nearby

Calidad del aire

  Calidad del aire Índice AQ Contaminante
Not available.

Grosos de nieve

Estación Profundido Altura

Actividad de terremotos

Ciudad Distance Mag. Tiempo y dato
Magnitud mínima muestra es 2,5.

Temperaturas de aguas costeras

Lugar Temperatura

Stations

Estaciones meteorológicas cercanas

Ubicación de la estación Temp. Vientos helados Punto de rocío Humedad Viento Precip. Alt Actualizado Tipo